sensor_id;sensor_type;location;lat;lon;timestamp;pressure;altitude;pressure_sealevel;temperature;humidity
63090;BME280;49174;43.198;27.824;2023-06-01T00:01:49;101655.59;;;15.00;100.00
63090;BME280;49174;43.198;27.824;2023-06-01T00:04:14;101656.41;;;15.01;100.00
63090;BME280;49174;43.198;27.824;2023-06-01T00:06:40;101655.16;;;14.96;100.00
63090;BME280;49174;43.198;27.824;2023-06-01T00:09:06;101656.63;;;14.99;100.00
63090;BME280;49174;43.198;27.824;2023-06-01T00:11:32;101653.91;;;14.99;100.00
63090;BME280;49174;43.198;27.824;2023-06-01T00:13:58;101648.25;;;15.01;100.00
63090;BME280;49174;43.198;27.824;2023-06-01T00:16:23;101644.47;;;14.95;100.00
63090;BME280;49174;43.198;27.824;2023-06-01T00:18:49;101650.56;;;14.97;100.00
63090;BME280;49174;43.198;27.824;2023-06-01T00:21:18;101652.88;;;15.00;100.00
63090;BME280;49174;43.198;27.824;2023-06-01T00:23:44;101648.03;;;14.95;100.00
63090;BME280;49174;43.198;27.824;2023-06-01T00:26:10;101638.38;;;14.86;100.00
63090;BME280;49174;43.198;27.824;2023-06-01T00:28:35;101642.78;;;14.87;100.00
63090;BME280;49174;43.198;27.824;2023-06-01T00:31:01;101640.69;;;14.83;100.00
63090;BME280;49174;43.198;27.824;2023-06-01T00:33:26;101647.38;;;14.87;100.00
63090;BME280;49174;43.198;27.824;2023-06-01T00:35:52;101641.50;;;14.83;100.00
63090;BME280;49174;43.198;27.824;2023-06-01T00:38:17;101643.59;;;14.81;100.00
63090;BME280;49174;43.198;27.824;2023-06-01T00:40:43;101636.91;;;14.84;100.00
63090;BME280;49174;43.198;27.824;2023-06-01T00:43:09;101636.09;;;14.90;100.00
63090;BME280;49174;43.198;27.824;2023-06-01T00:45:35;101639.47;;;14.92;100.00
63090;BME280;49174;43.198;27.824;2023-06-01T00:48:03;101638.22;;;14.94;100.00
63090;BME280;49174;43.198;27.824;2023-06-01T00:50:30;101640.31;;;14.99;100.00
63090;BME280;49174;43.198;27.824;2023-06-01T00:52:57;101645.72;;;14.92;100.00
63090;BME280;49174;43.198;27.824;2023-06-01T00:55:23;101644.66;;;14.87;100.00
63090;BME280;49174;43.198;27.824;2023-06-01T00:57:50;101637.75;;;14.84;100.00
63090;BME280;49174;43.198;27.824;2023-06-01T01:00:16;101640.91;;;14.88;100.00
63090;BME280;49174;43.198;27.824;2023-06-01T01:02:42;101640.69;;;14.89;100.00
63090;BME280;49174;43.198;27.824;2023-06-01T01:05:15;101642.38;;;14.90;100.00
63090;BME280;49174;43.198;27.824;2023-06-01T01:08:18;101638.81;;;14.90;100.00
63090;BME280;49174;43.198;27.824;2023-06-01T01:10:59;101640.06;;;14.87;100.00
63090;BME280;49174;43.198;27.824;2023-06-01T01:13:37;101646.13;;;14.83;100.00
63090;BME280;49174;43.198;27.824;2023-06-01T01:18:39;101641.94;;;14.87;100.00
63090;BME280;49174;43.198;27.824;2023-06-01T01:21:07;101638.38;;;14.86;100.00
63090;BME280;49174;43.198;27.824;2023-06-01T01:27:14;101632.53;;;14.83;100.00
63090;BME280;49174;43.198;27.824;2023-06-01T01:29:43;101636.06;;;14.77;100.00
63090;BME280;49174;43.198;27.824;2023-06-01T01:32:11;101638.13;;;14.74;100.00
63090;BME280;49174;43.198;27.824;2023-06-01T01:34:38;101633.13;;;14.71;100.00
63090;BME280;49174;43.198;27.824;2023-06-01T01:37:05;101635.19;;;14.69;100.00
63090;BME280;49174;43.198;27.824;2023-06-01T01:39:31;101643.97;;;14.71;100.00
63090;BME280;49174;43.198;27.824;2023-06-01T01:41:57;101638.75;;;14.70;100.00
63090;BME280;49174;43.198;27.824;2023-06-01T01:44:22;101645.88;;;14.71;100.00
63090;BME280;49174;43.198;27.824;2023-06-01T01:47:02;101646.06;;;14.69;100.00
63090;BME280;49174;43.198;27.824;2023-06-01T01:49:42;101644.75;;;14.65;100.00
63090;BME280;49174;43.198;27.824;2023-06-01T01:52:32;101646.47;;;14.66;100.00
63090;BME280;49174;43.198;27.824;2023-06-01T01:55:00;101655.03;;;14.63;100.00
63090;BME280;49174;43.198;27.824;2023-06-01T01:57:27;101650.19;;;14.59;100.00
63090;BME280;49174;43.198;27.824;2023-06-01T01:59:54;101645.97;;;14.56;100.00
63090;BME280;49174;43.198;27.824;2023-06-01T02:02:20;101642.25;;;14.57;100.00
63090;BME280;49174;43.198;27.824;2023-06-01T02:04:46;101648.50;;;14.58;100.00
63090;BME280;49174;43.198;27.824;2023-06-01T02:07:12;101643.09;;;14.58;100.00
63090;BME280;49174;43.198;27.824;2023-06-01T02:09:38;101651.81;;;14.53;100.00
63090;BME280;49174;43.198;27.824;2023-06-01T02:12:04;101644.22;;;14.48;100.00
63090;BME280;49174;43.198;27.824;2023-06-01T02:14:30;101658.03;;;14.47;100.00
63090;BME280;49174;43.198;27.824;2023-06-01T02:16:56;101655.47;;;14.39;100.00
63090;BME280;49174;43.198;27.824;2023-06-01T02:19:21;101655.47;;;14.39;100.00
63090;BME280;49174;43.198;27.824;2023-06-01T02:21:47;101658.44;;;14.44;100.00
63090;BME280;49174;43.198;27.824;2023-06-01T02:24:13;101658.00;;;14.40;100.00
63090;BME280;49174;43.198;27.824;2023-06-01T02:26:38;101652.09;;;14.37;100.00
63090;BME280;49174;43.198;27.824;2023-06-01T02:29:04;101659.84;;;14.40;100.00
63090;BME280;49174;43.198;27.824;2023-06-01T02:31:34;101659.44;;;14.43;100.00
63090;BME280;49174;43.198;27.824;2023-06-01T02:34:00;101655.47;;;14.39;100.00
63090;BME280;49174;43.198;27.824;2023-06-01T02:36:29;101662.31;;;14.35;100.00
63090;BME280;49174;43.198;27.824;2023-06-01T02:38:55;101659.38;;;14.29;100.00
63090;BME280;49174;43.198;27.824;2023-06-01T02:41:21;101657.50;;;14.30;100.00
63090;BME280;49174;43.198;27.824;2023-06-01T02:43:47;101656.69;;;14.29;100.00
63090;BME280;49174;43.198;27.824;2023-06-01T02:46:13;101658.94;;;14.26;100.00
63090;BME280;49174;43.198;27.824;2023-06-01T02:48:38;101660.22;;;14.30;100.00
63090;BME280;49174;43.198;27.824;2023-06-01T02:51:04;101667.53;;;14.29;100.00
63090;BME280;49174;43.198;27.824;2023-06-01T02:53:30;101664.22;;;14.34;100.00
63090;BME280;49174;43.198;27.824;2023-06-01T02:55:56;101666.91;;;14.34;100.00
63090;BME280;49174;43.198;27.824;2023-06-01T02:58:22;101670.09;;;14.38;100.00
63090;BME280;49174;43.198;27.824;2023-06-01T03:00:48;101668.00;;;14.40;100.00
63090;BME280;49174;43.198;27.824;2023-06-01T03:03:13;101669.22;;;14.37;100.00
63090;BME280;49174;43.198;27.824;2023-06-01T03:05:39;101666.75;;;14.42;100.00
63090;BME280;49174;43.198;27.824;2023-06-01T03:08:05;101665.94;;;14.42;100.00
63090;BME280;49174;43.198;27.824;2023-06-01T03:10:33;101671.59;;;14.47;100.00
63090;BME280;49174;43.198;27.824;2023-06-01T03:12:58;101662.81;;;14.45;100.00
63090;BME280;49174;43.198;27.824;2023-06-01T03:15:24;101665.75;;;14.43;100.00
63090;BME280;49174;43.198;27.824;2023-06-01T03:17:50;101669.69;;;14.41;100.00
63090;BME280;49174;43.198;27.824;2023-06-01T03:20:17;101675.13;;;14.41;100.00
63090;BME280;49174;43.198;27.824;2023-06-01T03:22:43;101672.16;;;14.36;100.00
63090;BME280;49174;43.198;27.824;2023-06-01T03:25:09;101679.47;;;14.35;100.00
63090;BME280;49174;43.198;27.824;2023-06-01T03:27:36;101668.81;;;14.34;100.00
63090;BME280;49174;43.198;27.824;2023-06-01T03:30:02;101668.81;;;14.34;100.00
63090;BME280;49174;43.198;27.824;2023-06-01T03:32:29;101676.16;;;14.40;100.00
63090;BME280;49174;43.198;27.824;2023-06-01T03:34:55;101677.63;;;14.42;100.00
63090;BME280;49174;43.198;27.824;2023-06-01T03:37:21;101668.88;;;14.47;100.00
63090;BME280;49174;43.198;27.824;2023-06-01T03:39:47;101674.59;;;14.52;100.00
63090;BME280;49174;43.198;27.824;2023-06-01T03:42:12;101679.22;;;14.58;100.00
63090;BME280;49174;43.198;27.824;2023-06-01T03:44:39;101680.94;;;14.66;100.00
63090;BME280;49174;43.198;27.824;2023-06-01T03:47:06;101679.47;;;14.63;100.00
63090;BME280;49174;43.198;27.824;2023-06-01T03:49:31;101674.03;;;14.63;100.00
63090;BME280;49174;43.198;27.824;2023-06-01T03:51:57;101679.88;;;14.67;100.00
63090;BME280;49174;43.198;27.824;2023-06-01T03:54:23;101681.78;;;14.73;100.00
63090;BME280;49174;43.198;27.824;2023-06-01T03:56:48;101688.28;;;14.79;100.00
63090;BME280;49174;43.198;27.824;2023-06-01T03:59:13;101681.69;;;14.88;100.00
63090;BME280;49174;43.198;27.824;2023-06-01T04:01:40;101678.09;;;14.87;100.00
63090;BME280;49174;43.198;27.824;2023-06-01T04:04:08;101683.53;;;14.87;100.00
63090;BME280;49174;43.198;27.824;2023-06-01T04:06:36;101675.44;;;14.94;100.00
63090;BME280;49174;43.198;27.824;2023-06-01T04:09:03;101688.19;;;15.00;100.00
63090;BME280;49174;43.198;27.824;2023-06-01T04:11:32;101690.50;;;15.03;100.00
63090;BME280;49174;43.198;27.824;2023-06-01T04:13:59;101687.19;;;15.08;100.00
63090;BME280;49174;43.198;27.824;2023-06-01T04:16:25;101688.66;;;15.17;100.00
63090;BME280;49174;43.198;27.824;2023-06-01T04:18:50;101690.75;;;15.15;100.00
63090;BME280;49174;43.198;27.824;2023-06-01T04:21:17;101690.78;;;15.22;100.00
63090;BME280;49174;43.198;27.824;2023-06-01T04:23:42;101694.97;;;15.31;100.00
63090;BME280;49174;43.198;27.824;2023-06-01T04:26:08;101699.81;;;15.35;100.00
63090;BME280;49174;43.198;27.824;2023-06-01T04:28:35;101692.31;;;15.44;100.00
63090;BME280;49174;43.198;27.824;2023-06-01T04:31:01;101697.94;;;15.42;100.00
63090;BME280;49174;43.198;27.824;2023-06-01T04:33:28;101693.56;;;15.48;100.00
63090;BME280;49174;43.198;27.824;2023-06-01T04:35:53;101695.66;;;15.59;100.00
63090;BME280;49174;43.198;27.824;2023-06-01T04:38:19;101686.66;;;15.65;100.00
63090;BME280;49174;43.198;27.824;2023-06-01T04:40:47;101695.72;;;15.73;100.00
63090;BME280;49174;43.198;27.824;2023-06-01T04:43:13;101698.06;;;15.82;100.00
63090;BME280;49174;43.198;27.824;2023-06-01T04:45:44;101696.38;;;15.88;100.00
63090;BME280;49174;43.198;27.824;2023-06-01T04:48:10;101688.63;;;15.92;100.00
63090;BME280;49174;43.198;27.824;2023-06-01T04:50:36;101691.56;;;15.97;100.00
63090;BME280;49174;43.198;27.824;2023-06-01T04:53:02;101694.28;;;16.03;100.00
63090;BME280;49174;43.198;27.824;2023-06-01T04:55:28;101688.81;;;16.10;100.00
63090;BME280;49174;43.198;27.824;2023-06-01T04:57:53;101692.38;;;16.17;100.00
63090;BME280;49174;43.198;27.824;2023-06-01T05:00:19;101698.44;;;16.26;100.00
63090;BME280;49174;43.198;27.824;2023-06-01T05:02:46;101698.63;;;16.38;100.00
63090;BME280;49174;43.198;27.824;2023-06-01T05:05:14;101692.13;;;16.52;100.00
63090;BME280;49174;43.198;27.824;2023-06-01T05:07:41;101690.59;;;16.63;100.00
63090;BME280;49174;43.198;27.824;2023-06-01T05:10:11;101695.22;;;16.69;100.00
63090;BME280;49174;43.198;27.824;2023-06-01T05:12:37;101692.31;;;16.77;100.00
63090;BME280;49174;43.198;27.824;2023-06-01T05:15:06;101701.91;;;16.86;100.00
63090;BME280;49174;43.198;27.824;2023-06-01T05:17:32;101705.41;;;16.93;100.00
63090;BME280;49174;43.198;27.824;2023-06-01T05:19:57;101705.63;;;16.98;99.73
63090;BME280;49174;43.198;27.824;2023-06-01T05:22:23;101701.81;;;17.06;100.00
63090;BME280;49174;43.198;27.824;2023-06-01T05:24:49;101702.84;;;17.12;99.67
63090;BME280;49174;43.198;27.824;2023-06-01T05:27:16;101701.75;;;17.19;98.36
63090;BME280;49174;43.198;27.824;2023-06-01T05:29:41;101699.22;;;17.25;96.98
63090;BME280;49174;43.198;27.824;2023-06-01T05:32:08;101700.84;;;17.32;96.29
63090;BME280;49174;43.198;27.824;2023-06-01T05:34:34;101700.38;;;17.42;96.42
63090;BME280;49174;43.198;27.824;2023-06-01T05:37:00;101703.44;;;17.52;96.54
63090;BME280;49174;43.198;27.824;2023-06-01T05:39:26;101696.69;;;17.61;95.46
63090;BME280;49174;43.198;27.824;2023-06-01T05:41:57;101693.88;;;17.75;94.63
63090;BME280;49174;43.198;27.824;2023-06-01T05:44:24;101700.75;;;17.84;94.25
63090;BME280;49174;43.198;27.824;2023-06-01T05:46:49;101702.53;;;17.97;92.92
63090;BME280;49174;43.198;27.824;2023-06-01T05:49:16;101701.38;;;18.11;92.54
63090;BME280;49174;43.198;27.824;2023-06-01T05:51:42;101706.09;;;18.22;91.14
63090;BME280;49174;43.198;27.824;2023-06-01T05:54:08;101700.50;;;18.36;91.44
63090;BME280;49174;43.198;27.824;2023-06-01T05:56:34;101701.59;;;18.53;91.78
63090;BME280;49174;43.198;27.824;2023-06-01T05:59:02;101705.59;;;18.69;89.20
63090;BME280;49174;43.198;27.824;2023-06-01T06:01:29;101701.47;;;18.85;86.26
63090;BME280;49174;43.198;27.824;2023-06-01T06:03:56;101705.72;;;18.99;84.53
63090;BME280;49174;43.198;27.824;2023-06-01T06:06:22;101700.06;;;19.12;84.97
63090;BME280;49174;43.198;27.824;2023-06-01T06:08:49;101702.41;;;19.27;82.96
63090;BME280;49174;43.198;27.824;2023-06-01T06:11:14;101697.09;;;19.44;84.08
63090;BME280;49174;43.198;27.824;2023-06-01T06:13:40;101706.56;;;19.60;81.86
63090;BME280;49174;43.198;27.824;2023-06-01T06:16:05;101707.59;;;19.77;82.50
63090;BME280;49174;43.198;27.824;2023-06-01T06:18:31;101706.09;;;19.93;77.85
63090;BME280;49174;43.198;27.824;2023-06-01T06:20:57;101702.19;;;20.13;78.34
63090;BME280;49174;43.198;27.824;2023-06-01T06:23:22;101704.22;;;20.29;75.96
63090;BME280;49174;43.198;27.824;2023-06-01T06:25:48;101698.84;;;20.46;76.39
63090;BME280;49174;43.198;27.824;2023-06-01T06:28:14;101705.88;;;20.65;75.90
63090;BME280;49174;43.198;27.824;2023-06-01T06:30:40;101708.56;;;20.89;75.93
63090;BME280;49174;43.198;27.824;2023-06-01T06:33:06;101707.91;;;21.10;72.05
63090;BME280;49174;43.198;27.824;2023-06-01T06:35:31;101706.41;;;21.31;71.52
63090;BME280;49174;43.198;27.824;2023-06-01T06:37:59;101711.81;;;21.55;69.36
63090;BME280;49174;43.198;27.824;2023-06-01T06:40:24;101716.09;;;21.79;68.12
63090;BME280;49174;43.198;27.824;2023-06-01T06:42:50;101717.78;;;21.97;66.64
63090;BME280;49174;43.198;27.824;2023-06-01T06:45:16;101717.38;;;22.22;66.76
63090;BME280;49174;43.198;27.824;2023-06-01T06:47:42;101710.44;;;22.37;64.88
63090;BME280;49174;43.198;27.824;2023-06-01T06:50:12;101708.63;;;22.64;67.90
63090;BME280;49174;43.198;27.824;2023-06-01T06:52:38;101710.94;;;22.72;62.48
63090;BME280;49174;43.198;27.824;2023-06-01T06:55:05;101712.00;;;22.88;62.26
63090;BME280;49174;43.198;27.824;2023-06-01T06:57:30;101701.97;;;22.99;61.77
63090;BME280;49174;43.198;27.824;2023-06-01T06:59:56;101706.56;;;23.15;61.42
63090;BME280;49174;43.198;27.824;2023-06-01T07:02:22;101706.84;;;23.41;61.68
63090;BME280;49174;43.198;27.824;2023-06-01T07:04:48;101703.72;;;23.59;60.97
63090;BME280;49174;43.198;27.824;2023-06-01T07:07:15;101704.03;;;23.63;62.46
63090;BME280;49174;43.198;27.824;2023-06-01T07:09:40;101707.66;;;23.69;59.84
63090;BME280;49174;43.198;27.824;2023-06-01T07:12:06;101706.38;;;23.76;60.66
63090;BME280;49174;43.198;27.824;2023-06-01T07:14:32;101699.56;;;23.84;62.45
63090;BME280;49174;43.198;27.824;2023-06-01T07:16:58;101710.44;;;24.01;60.38
63090;BME280;49174;43.198;27.824;2023-06-01T07:19:23;101696.78;;;24.16;58.41
63090;BME280;49174;43.198;27.824;2023-06-01T07:21:49;101695.47;;;24.29;56.83
63090;BME280;49174;43.198;27.824;2023-06-01T07:24:18;101702.72;;;24.40;58.31
63090;BME280;49174;43.198;27.824;2023-06-01T07:26:44;101700.63;;;24.52;56.12
63090;BME280;49174;43.198;27.824;2023-06-01T07:29:09;101697.97;;;24.73;59.24
63090;BME280;49174;43.198;27.824;2023-06-01T07:31:37;101706.91;;;25.01;56.81
63090;BME280;49174;43.198;27.824;2023-06-01T07:34:04;101704.56;;;25.25;54.53
63090;BME280;49174;43.198;27.824;2023-06-01T07:36:29;101691.88;;;25.39;54.94
63090;BME280;49174;43.198;27.824;2023-06-01T07:39:01;101690.81;;;25.55;55.86
63090;BME280;49174;43.198;27.824;2023-06-01T07:41:26;101686.69;;;25.83;55.97
63090;BME280;49174;43.198;27.824;2023-06-01T07:43:52;101688.91;;;25.97;52.79
63090;BME280;49174;43.198;27.824;2023-06-01T07:46:18;101686.72;;;25.94;52.96
63090;BME280;49174;43.198;27.824;2023-06-01T07:48:43;101692.22;;;26.04;54.26
63090;BME280;49174;43.198;27.824;2023-06-01T07:51:09;101676.19;;;26.01;54.33
63090;BME280;49174;43.198;27.824;2023-06-01T07:53:35;101685.84;;;26.14;53.39
63090;BME280;49174;43.198;27.824;2023-06-01T07:56:00;101682.22;;;26.18;54.10
63090;BME280;49174;43.198;27.824;2023-06-01T07:58:26;101675.03;;;26.27;52.74
63090;BME280;49174;43.198;27.824;2023-06-01T08:00:52;101676.66;;;26.39;53.28
63090;BME280;49174;43.198;27.824;2023-06-01T08:03:18;101682.16;;;26.59;49.20
63090;BME280;49174;43.198;27.824;2023-06-01T08:05:46;101675.72;;;26.79;49.09
63090;BME280;49174;43.198;27.824;2023-06-01T08:08:11;101668.53;;;26.83;47.37
63090;BME280;49174;43.198;27.824;2023-06-01T08:10:36;101667.06;;;26.91;48.02
63090;BME280;49174;43.198;27.824;2023-06-01T08:13:04;101669.44;;;27.13;47.49
63090;BME280;49174;43.198;27.824;2023-06-01T08:15:30;101657.25;;;27.19;47.33
63090;BME280;49174;43.198;27.824;2023-06-01T08:17:56;101667.50;;;27.18;45.48
63090;BME280;49174;43.198;27.824;2023-06-01T08:20:22;101665.28;;;27.21;44.74
63090;BME280;49174;43.198;27.824;2023-06-01T08:22:49;101664.13;;;27.27;44.48
63090;BME280;49174;43.198;27.824;2023-06-01T08:25:15;101656.56;;;27.43;43.98
63090;BME280;49174;43.198;27.824;2023-06-01T08:27:41;101651.75;;;27.53;43.57
63090;BME280;49174;43.198;27.824;2023-06-01T08:30:08;101651.72;;;27.58;41.74
63090;BME280;49174;43.198;27.824;2023-06-01T08:32:33;101653.41;;;27.54;41.22
63090;BME280;49174;43.198;27.824;2023-06-01T08:34:59;101651.53;;;27.79;43.14
63090;BME280;49174;43.198;27.824;2023-06-01T08:37:26;101647.22;;;27.97;44.29
63090;BME280;49174;43.198;27.824;2023-06-01T08:39:51;101643.91;;;28.24;41.99
63090;BME280;49174;43.198;27.824;2023-06-01T08:42:32;101637.59;;;28.47;38.98
63090;BME280;49174;43.198;27.824;2023-06-01T08:45:03;101636.19;;;28.21;39.53
63090;BME280;49174;43.198;27.824;2023-06-01T08:47:31;101632.13;;;27.79;40.17
63090;BME280;49174;43.198;27.824;2023-06-01T08:49:58;101632.00;;;27.60;42.27
63090;BME280;49174;43.198;27.824;2023-06-01T08:52:25;101629.06;;;27.46;42.66
63090;BME280;49174;43.198;27.824;2023-06-01T08:54:53;101635.81;;;27.35;42.57
63090;BME280;49174;43.198;27.824;2023-06-01T08:57:19;101628.72;;;27.18;43.83
63090;BME280;49174;43.198;27.824;2023-06-01T08:59:46;101623.25;;;27.08;43.02
63090;BME280;49174;43.198;27.824;2023-06-01T09:02:13;101621.34;;;26.99;44.33
63090;BME280;49174;43.198;27.824;2023-06-01T09:04:40;101625.59;;;26.86;43.00
63090;BME280;49174;43.198;27.824;2023-06-01T09:07:08;101621.25;;;26.69;43.43
63090;BME280;49174;43.198;27.824;2023-06-01T09:09:33;101611.03;;;26.60;44.39
63090;BME280;49174;43.198;27.824;2023-06-01T09:12:27;101614.66;;;26.45;44.81
63090;BME280;49174;43.198;27.824;2023-06-01T09:15:08;101623.53;;;26.37;45.20
63090;BME280;49174;43.198;27.824;2023-06-01T09:17:35;101621.03;;;26.35;46.58
63090;BME280;49174;43.198;27.824;2023-06-01T09:20:01;101616.91;;;26.33;46.81
63090;BME280;49174;43.198;27.824;2023-06-01T09:22:43;101617.78;;;26.28;47.63
63090;BME280;49174;43.198;27.824;2023-06-01T09:25:10;101619.16;;;26.30;50.89
63090;BME280;49174;43.198;27.824;2023-06-01T09:27:51;101619.16;;;26.30;50.21
63090;BME280;49174;43.198;27.824;2023-06-01T09:30:22;101627.94;;;26.43;48.24
63090;BME280;49174;43.198;27.824;2023-06-01T09:33:12;101626.94;;;26.08;49.19
63090;BME280;49174;43.198;27.824;2023-06-01T09:35:47;101626.34;;;26.21;48.91
63090;BME280;49174;43.198;27.824;2023-06-01T09:38:23;101629.38;;;26.30;46.77
63090;BME280;49174;43.198;27.824;2023-06-01T09:40:59;101622.66;;;26.57;48.47
63090;BME280;49174;43.198;27.824;2023-06-01T09:43:26;101623.03;;;26.94;46.68
63090;BME280;49174;43.198;27.824;2023-06-01T09:46:08;101620.94;;;27.60;46.42
63090;BME280;49174;43.198;27.824;2023-06-01T09:48:34;101630.41;;;27.88;45.10
63090;BME280;49174;43.198;27.824;2023-06-01T09:51:00;101622.91;;;28.18;43.90
63090;BME280;49174;43.198;27.824;2023-06-01T09:53:25;101620.00;;;28.28;41.70
63090;BME280;49174;43.198;27.824;2023-06-01T09:56:00;101621.22;;;27.58;44.63
63090;BME280;49174;43.198;27.824;2023-06-01T09:58:26;101631.56;;;27.48;45.61
63090;BME280;49174;43.198;27.824;2023-06-01T10:00:52;101626.84;;;27.48;46.90
63090;BME280;49174;43.198;27.824;2023-06-01T10:03:19;101619.91;;;27.51;46.14
63090;BME280;49174;43.198;27.824;2023-06-01T10:05:46;101618.84;;;27.81;46.88
63090;BME280;49174;43.198;27.824;2023-06-01T10:08:13;101626.00;;;27.87;43.89
63090;BME280;49174;43.198;27.824;2023-06-01T10:10:42;101617.34;;;27.59;44.56
63090;BME280;49174;43.198;27.824;2023-06-01T10:13:08;101610.16;;;27.58;42.49
63090;BME280;49174;43.198;27.824;2023-06-01T10:15:33;101614.13;;;27.47;46.01
63090;BME280;49174;43.198;27.824;2023-06-01T10:18:00;101606.41;;;27.73;44.50
63090;BME280;49174;43.198;27.824;2023-06-01T10:20:26;101609.72;;;27.41;40.36
63090;BME280;49174;43.198;27.824;2023-06-01T10:22:52;101603.59;;;27.44;44.98
63090;BME280;49174;43.198;27.824;2023-06-01T10:25:20;101599.66;;;27.55;43.91
63090;BME280;49174;43.198;27.824;2023-06-01T10:28:09;101600.78;;;27.49;45.50
63090;BME280;49174;43.198;27.824;2023-06-01T10:30:36;101598.28;;;27.53;43.89
63090;BME280;49174;43.198;27.824;2023-06-01T10:33:02;101602.53;;;27.40;45.58
63090;BME280;49174;43.198;27.824;2023-06-01T10:40:40;101584.69;;;28.58;43.25
63090;BME280;49174;43.198;27.824;2023-06-01T10:43:06;101578.88;;;28.78;42.24
63090;BME280;49174;43.198;27.824;2023-06-01T10:48:03;101578.56;;;28.13;41.55
63090;BME280;49174;43.198;27.824;2023-06-01T10:50:29;101571.28;;;27.93;41.84
63090;BME280;49174;43.198;27.824;2023-06-01T10:52:55;101577.81;;;27.78;43.39
63090;BME280;49174;43.198;27.824;2023-06-01T10:55:23;101577.00;;;27.43;43.35
63090;BME280;49174;43.198;27.824;2023-06-01T10:57:49;101572.75;;;27.56;44.56
63090;BME280;49174;43.198;27.824;2023-06-01T11:00:25;101563.09;;;27.48;42.95
63090;BME280;49174;43.198;27.824;2023-06-01T11:03:03;101555.75;;;27.62;44.72
63090;BME280;49174;43.198;27.824;2023-06-01T11:08:05;101563.31;;;27.57;46.33
63090;BME280;49174;43.198;27.824;2023-06-01T11:13:22;101554.78;;;27.48;46.16
63090;BME280;49174;43.198;27.824;2023-06-01T11:19:01;101557.31;;;27.45;47.52
63090;BME280;49174;43.198;27.824;2023-06-01T11:21:41;101544.84;;;27.71;44.43
63090;BME280;49174;43.198;27.824;2023-06-01T11:24:12;101543.66;;;27.82;41.69
63090;BME280;49174;43.198;27.824;2023-06-01T11:26:49;101545.03;;;28.09;40.16
63090;BME280;49174;43.198;27.824;2023-06-01T11:29:20;101542.53;;;28.56;44.22
63090;BME280;49174;43.198;27.824;2023-06-01T11:31:58;101531.00;;;29.00;37.96
63090;BME280;49174;43.198;27.824;2023-06-01T11:34:30;101533.91;;;28.76;37.66
63090;BME280;49174;43.198;27.824;2023-06-01T11:36:57;101532.47;;;28.60;37.87
63090;BME280;49174;43.198;27.824;2023-06-01T11:39:25;101532.41;;;28.65;37.98
63090;BME280;49174;43.198;27.824;2023-06-01T11:44:30;101517.16;;;29.66;36.93
63090;BME280;49174;43.198;27.824;2023-06-01T11:46:58;101513.88;;;30.05;35.01
63090;BME280;49174;43.198;27.824;2023-06-01T11:49:24;101510.19;;;30.23;32.79
63090;BME280;49174;43.198;27.824;2023-06-01T11:51:51;101517.44;;;30.47;37.55
63090;BME280;49174;43.198;27.824;2023-06-01T11:54:25;101507.78;;;30.81;34.03
63090;BME280;49174;43.198;27.824;2023-06-01T11:56:52;101504.56;;;30.51;31.52
63090;BME280;49174;43.198;27.824;2023-06-01T11:59:18;101511.00;;;29.36;35.37
63090;BME280;49174;43.198;27.824;2023-06-01T12:01:47;101497.19;;;29.77;33.45
63090;BME280;49174;43.198;27.824;2023-06-01T12:04:17;101501.84;;;29.35;35.09
63090;BME280;49174;43.198;27.824;2023-06-01T12:06:43;101499.25;;;29.86;37.41
63090;BME280;49174;43.198;27.824;2023-06-01T12:09:11;101497.38;;;30.09;34.85
63090;BME280;49174;43.198;27.824;2023-06-01T12:11:37;101498.25;;;30.23;37.11
63090;BME280;49174;43.198;27.824;2023-06-01T12:14:04;101495.84;;;30.30;36.14
63090;BME280;49174;43.198;27.824;2023-06-01T12:16:53;101491.75;;;30.50;34.33
63090;BME280;49174;43.198;27.824;2023-06-01T12:19:20;101487.16;;;30.82;33.53
63090;BME280;49174;43.198;27.824;2023-06-01T12:21:48;101487.16;;;31.04;32.74
63090;BME280;49174;43.198;27.824;2023-06-01T12:24:14;101481.06;;;31.02;32.90
63090;BME280;49174;43.198;27.824;2023-06-01T12:26:40;101479.31;;;30.70;34.14
63090;BME280;49174;43.198;27.824;2023-06-01T12:29:05;101479.88;;;30.58;34.87
63090;BME280;49174;43.198;27.824;2023-06-01T12:31:32;101483.22;;;30.46;35.19
63090;BME280;49174;43.198;27.824;2023-06-01T12:33:57;101473.13;;;30.37;36.38
63090;BME280;49174;43.198;27.824;2023-06-01T12:36:30;101476.97;;;30.27;37.69
63090;BME280;49174;43.198;27.824;2023-06-01T12:39:00;101470.97;;;30.20;38.76
63090;BME280;49174;43.198;27.824;2023-06-01T12:41:26;101466.69;;;30.00;37.61
63090;BME280;49174;43.198;27.824;2023-06-01T12:43:52;101467.31;;;29.83;39.80
63090;BME280;49174;43.198;27.824;2023-06-01T12:46:26;101470.59;;;29.71;39.17
63090;BME280;49174;43.198;27.824;2023-06-01T12:48:53;101461.41;;;29.57;37.14
63090;BME280;49174;43.198;27.824;2023-06-01T12:51:20;101463.44;;;29.37;37.28
63090;BME280;49174;43.198;27.824;2023-06-01T12:53:47;101456.94;;;29.28;38.17
63090;BME280;49174;43.198;27.824;2023-06-01T12:56:13;101460.00;;;29.13;37.51
63090;BME280;49174;43.198;27.824;2023-06-01T12:58:39;101459.63;;;29.01;37.47
63090;BME280;49174;43.198;27.824;2023-06-01T13:01:05;101460.09;;;28.89;38.24
63090;BME280;49174;43.198;27.824;2023-06-01T13:03:32;101458.41;;;28.74;39.25